Taperoa, Brazil
Current Conditions -  °F | °C
As of 6:00 AM on Monday 24 Nov 2014 (Local Time) from SBKG Reporting Station
Broken Clouds Broken Clouds  
Wind Chill: 70°   Ceiling: 1100
Heat Index: 70°   Visibility: 4mi
Dew Point: 68°   Wind: 8mph
Humidity: 94%   Direction: 100°E
Pressure: 30.03"   Gusts: NA
Location:  7.21°S, 36.83°W
Report Text: SBKG 240900Z 10007KT 6000 SCT004 BKN011 21/20 Q1017
Loading
Personal Weather Stations






























Interactive Weather Map New forecast layout! Learn more

10-Day Weather Forecast

Advertisements
Track Severe Weather on mobile